Time;durP1;ratioP1;P1;durP2;ratioP2;P2;SDS_P1;SDS_P2;PMS_P1;PMS_P2;Temp;Humidity;BMP_temperature;BMP_pressure;BME280_temperature;BME280_humidity;BME280_pressure;Samples;Min_cycle;Max_cycle;Signal;HPM_P1;HPM_P2
2021/01/31 12:02:38;;;;;;;9.87;8.87;;;;;;;21.96;51.73;97171.13;21119958;27;20782;-80
2021/01/31 12:12:40;;;;;;;9.57;8.40;;;;;;;22.26;50.96;97167.00;21011982;28;20666;-81
2021/01/31 12:22:42;;;;;;;9.77;8.40;;;;;;;22.47;50.51;97158.09;21014000;28;20237;-82
2021/01/31 12:32:44;;;;;;;9.53;7.97;;;;;;;22.65;50.47;97146.97;20983798;28;20969;-81
2021/01/31 12:42:46;;;;;;;10.90;9.87;;;;;;;22.55;45.96;97136.19;20981676;28;20262;-75
2021/01/31 12:52:48;;;;;;;8.97;8.07;;;;;;;22.45;46.63;97125.34;20968528;28;20242;-71
2021/01/31 13:02:50;;;;;;;9.30;8.30;;;;;;;22.53;47.14;97115.50;20962159;28;20239;-71
2021/01/31 13:12:52;;;;;;;8.93;8.17;;;;;;;22.58;47.12;97093.97;20913359;28;20282;-70
2021/01/31 13:22:55;;;;;;;8.83;7.97;;;;;;;22.62;47.30;97082.09;20920529;28;20262;-71
2021/01/31 13:32:56;;;;;;;9.13;8.33;;;;;;;22.66;47.56;97093.72;20905749;28;20289;-70
2021/01/31 13:42:59;;;;;;;7.90;7.23;;;;;;;22.67;47.57;97093.53;20933049;28;20738;-70
2021/01/31 13:53:00;;;;;;;9.30;7.90;;;;;;;22.68;47.68;97089.91;20910631;28;20278;-70
2021/01/31 14:03:03;;;;;;;8.00;7.20;;;;;;;22.68;47.65;97091.69;20902271;28;20274;-70
2021/01/31 14:13:05;;;;;;;7.77;7.00;;;;;;;22.66;47.53;97078.84;20901610;28;20614;-71
2021/01/31 14:23:07;;;;;;;8.07;7.37;;;;;;;22.65;47.69;97084.28;20899734;28;20698;-70
2021/01/31 14:33:09;;;;;;;9.00;7.33;;;;;;;22.62;47.57;97088.13;20900143;28;20208;-70
2021/01/31 14:43:11;;;;;;;8.13;7.33;;;;;;;22.61;47.73;97090.94;20898841;28;20221;-71
2021/01/31 14:53:13;;;;;;;8.73;8.03;;;;;;;22.58;47.66;97073.91;20907254;28;20225;-71
2021/01/31 15:03:15;;;;;;;9.00;8.20;;;;;;;22.55;47.95;97058.66;20897557;28;20213;-71
2021/01/31 15:13:17;;;;;;;8.40;7.63;;;;;;;22.52;48.30;97029.53;20896906;28;20217;-70
2021/01/31 15:23:21;;;;;;;9.13;8.23;;;;;;;22.51;48.34;97020.09;20896230;28;20320;-71
2021/01/31 15:33:22;;;;;;;7.97;7.17;;;;;;;22.47;48.62;97019.75;20894981;28;20290;-70
2021/01/31 15:43:25;;;;;;;7.63;7.03;;;;;;;22.45;48.55;97013.13;20895666;28;20592;-71
2021/01/31 15:53:26;;;;;;;8.93;8.23;;;;;;;22.45;48.61;97008.69;20918226;28;20286;-71
2021/01/31 16:03:29;;;;;;;8.77;8.00;;;;;;;22.38;48.60;97003.53;20892337;28;20217;-70
2021/01/31 16:13:30;;;;;;;8.80;8.03;;;;;;;22.42;48.67;96995.28;20894113;28;20228;-71
2021/01/31 16:23:33;;;;;;;9.87;9.07;;;;;;;22.42;48.73;97000.50;20894232;28;20557;-71
2021/01/31 16:33:34;;;;;;;8.70;7.90;;;;;;;22.39;48.87;96999.91;20893672;28;20678;-71
2021/01/31 16:43:37;;;;;;;9.97;7.83;;;;;;;22.37;48.93;96991.47;20897866;28;20224;-70
2021/01/31 16:53:38;;;;;;;8.00;7.23;;;;;;;22.33;49.20;96987.72;20916724;28;20225;-70
2021/01/31 17:03:41;;;;;;;6.80;6.23;;;;;;;22.30;49.33;96988.09;20907200;28;20263;-70
2021/01/31 17:13:42;;;;;;;7.83;7.13;;;;;;;22.33;49.29;96981.69;20906304;28;20209;-70
2021/01/31 17:23:45;;;;;;;7.57;6.87;;;;;;;22.38;49.21;96964.38;20905586;28;20209;-71
2021/01/31 17:33:46;;;;;;;10.53;7.87;;;;;;;22.44;49.49;96967.94;20904055;28;20208;-72
2021/01/31 17:43:49;;;;;;;14.20;7.87;;;;;;;22.49;49.58;96954.25;20934697;28;20266;-72
2021/01/31 17:53:51;;;;;;;10.57;7.30;;;;;;;22.50;50.00;96941.00;20905102;28;20229;-73
2021/01/31 18:03:53;;;;;;;11.03;8.00;;;;;;;22.52;50.53;96927.72;20902790;28;20317;-72
2021/01/31 18:13:55;;;;;;;11.20;7.13;;;;;;;22.52;50.81;96912.88;20930649;28;20209;-73
2021/01/31 18:23:58;;;;;;;15.63;8.03;;;;;;;22.52;50.77;96912.88;20944205;28;20223;-73
2021/01/31 18:33:59;;;;;;;9.03;7.37;;;;;;;22.51;50.92;96903.41;20903064;28;20216;-71
2021/01/31 18:44:02;;;;;;;8.67;7.80;;;;;;;22.50;51.02;96887.97;20889059;28;20239;-72
2021/01/31 18:54:03;;;;;;;13.10;7.83;;;;;;;22.49;51.05;96886.38;20895839;28;20220;-72
2021/01/31 19:04:06;;;;;;;9.57;7.13;;;;;;;22.48;51.07;96869.13;20889609;28;20635;-72
2021/01/31 19:14:08;;;;;;;8.80;7.20;;;;;;;22.47;51.11;96859.69;20888159;28;20217;-74
2021/01/31 19:24:11;;;;;;;8.20;7.40;;;;;;;22.46;51.07;96868.53;20885438;28;20216;-74
2021/01/31 19:34:13;;;;;;;7.47;6.80;;;;;;;22.46;51.22;96873.75;20886675;28;20232;-76
2021/01/31 19:44:15;;;;;;;10.50;7.60;;;;;;;22.46;51.07;96863.31;20910824;28;20654;-74
2021/01/31 19:54:17;;;;;;;8.37;7.57;;;;;;;22.44;51.04;96854.91;20893320;28;20216;-73
2021/01/31 20:04:19;;;;;;;8.63;7.30;;;;;;;22.42;51.29;96824.59;20885542;28;20200;-75
2021/01/31 20:14:21;;;;;;;8.97;6.90;;;;;;;22.43;51.38;96814.97;20887613;28;20217;-75
2021/01/31 20:24:23;;;;;;;8.57;7.17;;;;;;;22.42;51.25;96804.72;20929672;28;20766;-75
2021/01/31 20:34:25;;;;;;;7.77;7.00;;;;;;;22.40;51.36;96791.91;20918266;28;20267;-74
2021/01/31 20:44:27;;;;;;;7.30;6.57;;;;;;;22.39;51.32;96767.59;20898955;28;20235;-73
2021/01/31 20:54:29;;;;;;;8.20;6.40;;;;;;;22.38;51.20;96760.81;20909436;28;20217;-77
2021/01/31 21:04:31;;;;;;;8.73;6.53;;;;;;;22.37;51.25;96751.38;20909711;28;21065;-74
2021/01/31 21:14:33;;;;;;;6.87;6.20;;;;;;;22.39;51.24;96748.53;20935463;28;20326;-76
2021/01/31 21:24:35;;;;;;;7.17;6.57;;;;;;;22.38;51.32;96729.50;20927280;28;20216;-74
2021/01/31 21:34:37;;;;;;;7.13;6.53;;;;;;;22.37;51.18;96727.88;20942129;28;20286;-74
2021/01/31 21:44:40;;;;;;;7.30;6.60;;;;;;;22.37;51.21;96714.81;20917089;28;20229;-72
2021/01/31 21:54:42;;;;;;;8.10;6.90;;;;;;;22.35;51.24;96703.81;20914562;28;20216;-73
2021/01/31 22:04:45;;;;;;;8.53;7.20;;;;;;;22.35;51.24;96692.59;20901166;28;20208;-72
2021/01/31 22:14:46;;;;;;;7.53;6.73;;;;;;;22.34;51.30;96688.38;20929464;28;20216;-73
2021/01/31 22:24:49;;;;;;;7.00;6.30;;;;;;;22.33;51.04;96689.41;20907857;28;20224;-74
2021/01/31 22:34:51;;;;;;;8.23;5.50;;;;;;;22.32;51.25;96683.38;20901482;28;20943;-75
2021/01/31 22:44:53;;;;;;;8.47;7.57;;;;;;;22.31;51.24;96668.75;20889612;28;20748;-74
2021/01/31 22:54:55;;;;;;;7.07;5.87;;;;;;;22.33;51.28;96658.88;20911327;28;20281;-71
2021/01/31 23:04:59;;;;;;;9.70;8.90;;;;;;;21.49;44.24;96636.31;20916730;28;20220;-72
2021/01/31 23:15:00;;;;;;;8.20;7.57;;;;;;;21.69;47.54;96627.28;20896445;28;20293;-72
2021/01/31 23:25:03;;;;;;;8.43;7.63;;;;;;;21.80;47.94;96621.38;20900750;28;20253;-71
2021/01/31 23:35:06;;;;;;;8.23;7.53;;;;;;;21.82;47.62;96614.13;20900298;28;20217;-70
2021/01/31 23:45:09;;;;;;;7.63;6.90;;;;;;;21.85;47.58;96600.66;20898927;28;20213;-72
2021/01/31 23:55:12;;;;;;;8.70;8.00;;;;;;;21.85;47.83;96587.63;20907474;28;20220;-71
